• Join FlightAware (Why Join?)
  • Login
  • US Flag 
05:20AM EDT


 

Airport Tracker/Info


-or-


 

Live Flight TrackerFlight Track Log ✈ ASQ4574 ✈ 16-May-2013 ✈ MMIO / SLW - KIAH

Flight Track Log - Related Links

Times and Time Zones

All times are in EDT time to prevent confusion due to time zone crossing. See the ASQ4574 flight status page for this flight to view local times or setup timezone preferences in your user account.

Time Position Orientation Groundspeed Altitude Reporting Facility
EDT Latitude Longitude Course Direction KTS MPH feet Rate Location/Type
08:29AM 26.2194 -100.4486 32° Northeast 386 444 22,500  Level Houston Center
08:30AM 26.3142 -100.3828 32° Northeast 397 457 23,500 1,020 Climbing Houston Center
08:31AM 26.4283 -100.2994 33° Northeast 408 470 24,700 1,020 Climbing Houston Center
08:32AM 26.5267 -100.2294 32° Northeast 415 478 25,700 960 Climbing Houston Center
08:33AM 26.6258 -100.1581 33° Northeast 421 484 26,800 960 Climbing Houston Center
08:34AM 26.7258 -100.0858 33° Northeast 426 490 27,800 960 Climbing Houston Center
08:35AM 26.8272 -100.0131 33° Northeast 430 495 28,800 960 Climbing Houston Center
08:36AM 26.9294 -99.9389 33° Northeast 436 502 29,800 960 Climbing Houston Center
08:37AM 27.0319 -99.8628 33° Northeast 440 506 30,800 1,020 Climbing Houston Center
08:38AM 27.1567 -99.7725 33° Northeast 444 511 32,000 1,020 Climbing Houston Center
08:40AM 27.2617 -99.6950 33° Northeast 448 516 33,000 960 Climbing Houston Center
08:41AM 27.3433 -99.5850 50° Northeast 457 526 34,000 900 Climbing Houston Center
08:42AM 27.4211 -99.4700 53° Northeast 460 529 34,900 480 Climbing Houston Center
08:43AM 27.5017 -99.3522 52° Northeast 470 541 35,000  Climbing Houston Center
08:44AM 27.6164 -99.2717 32° Northeast 479 551 35,000  Level Houston Center
08:45AM 27.7117 -99.1508 48° Northeast 517 595 35,000  Level Houston Center
08:46AM 27.7972 -99.0161 54° Northeast 520 598 35,000  Level Houston Center
08:47AM 27.8822 -98.8806 55° Northeast 521 600 35,000  Level Houston Center
08:48AM 27.9664 -98.7467 55° Northeast 521 600 35,000  Level Houston Center
08:49AM 28.0664 -98.5875 55° Northeast 516 594 35,000  Level Houston Center
08:50AM 28.1486 -98.4561 55° Northeast 513 590 35,000  Level Houston Center
08:51AM 28.2300 -98.3258 55° Northeast 507 583 35,000  Level Houston Center
08:52AM 28.3128 -98.1942 54° Northeast 511 588 35,000  Level Houston Center
08:53AM 28.3947 -98.0619 55° Northeast 513 590 35,000  Level Houston Center
08:54AM 28.4733 -97.9347 55° Northeast 516 594 35,000  Level Houston Center
08:55AM 28.5731 -97.7756 54° Northeast 517 595 35,000  Level Houston Center
08:56AM 28.6558 -97.6422 55° Northeast 517 595 35,000  Level Houston Center
08:57AM 28.7378 -97.5075 55° Northeast 518 596 35,000 -660 Level Houston Center
08:58AM 28.8200 -97.3747 55° Northeast 514 592 33,700 -1,920 Descending Houston Center
08:59AM 28.8992 -97.2431 55° Northeast 507 583 31,100 -2,460 Descending Houston Center
09:00AM 28.9786 -97.1133 55° Northeast 502 578 28,700 -2,580 Descending Houston Center
09:01AM 29.0722 -96.9583 55° Northeast 498 573 25,800 -2,640 Descending Houston Center
09:02AM 29.1453 -96.8361 56° Northeast 475 547 23,400 -2,220 Descending Houston Center
09:03AM 29.2142 -96.7203 56° Northeast 457 526 21,300 -2,100 Descending Houston Center
09:04AM 29.2819 -96.6083 55° Northeast 438 504 19,100 -2,160 Descending Houston Center
09:05AM 29.3458 -96.5014 56° Northeast 415 478 16,900 -2,400 Descending Houston Center
09:06AM 29.4025 -96.4081 55° Northeast 389 448 14,800 -2,880 Descending Houston Center
09:06AM 29.4192 -96.3800 56° Northeast 392 451 14,000 -2,520 Descending Houston Center
09:07AM 29.4686 -96.2975 55° Northeast 376 433 12,000 -2,280 Descending Houston Center
09:08AM 29.5200 -96.2103 56° Northeast 361 415 10,000 -1,680 Descending Houston Center
09:08AM 29.5325 -96.1875 58° Northeast 364 419 10,000  Level Houston Center
09:09AM 29.5778 -96.1006 59° Northeast 344 396 10,000 -180 Level Houston Center
09:10AM 29.6208 -96.0189 59° Northeast 327 376 9,700 -420 Descending Houston Center
09:10AM 29.6306 -95.9981 62° Northeast 332 382 9,500 -660 Descending Houston Center
09:11AM 29.6722 -95.9314 54° Northeast 306 352 9,000 -420 Descending Houston Center
09:12AM 29.7517 -95.8814 29° Northeast 304 350 8,800 -780 Descending Houston Center
09:13AM 29.8133 -95.8431 28° Northeast 307 353 7,500 -1,320 Descending Houston Center
09:13AM 29.8281 -95.8275 43° Northeast 308 354 7,200 -1,680 Descending Houston Center
09:14AM 29.8714 -95.7617 53° Northeast 306 352 5,800 -1,560 Descending Houston Center
09:14AM 29.8792 -95.7489 55° Northeast 306 352 5,600 -1,320 Descending Houston Center
09:15AM 29.9211 -95.6858 52° Northeast 292 336 4,500 -1,680 Descending Houston Center
09:16AM 29.9394 -95.6617 49° Northeast 293 337 3,900 -1,440 Descending Houston Center
09:16AM 29.9636 -95.6206 56° Northeast 278 320 3,200 -900 Descending Houston Center
09:17AM 29.9836 -95.5889 54° Northeast 281 323 3,000 -180 Descending Houston Center
09:17AM 30.0053 -95.5458 60° Northeast 242 278 3,000 -240 Level Houston Center
09:18AM 30.0072 -95.5206 85° East 247 284 2,800 -1,140 Descending Houston Center
09:18AM 30.0067 -95.4683 91° East 208 239 1,900 -1,080 Descending Houston Center
09:19AM 30.0069 -95.4517 89° East 227 261 1,700 -840 Descending Houston Center
09:19AM 30.0064 -95.4178 91° East 139 160 1,100 -780 Descending Houston Center
09:20AM 30.0075 -95.4050 84° East 180 207 900 -360 Descending Houston Center
09:21AM 30.0092 -95.3569 88° East 156 180 600 -300 Descending Houston Center
09:23AM 29.9833 -95.3333 98° East  Level FlightAware Approximate